CYSF

Details ICAO CYSF (YSF)
Name Stony Rapids
Region Canada
Timezone America/Regina (UTC-6.0)
Plans Departing 10
Arriving 10
Stats Elevation 805 ft / 245 m (AMSL)
Location 59.250340° -105.841339°
Runways 1
Magnetic Variation 10.085° E
Sunrise 2018-05-20 10:21:19 UTC / 2018-05-20 04:21:19 Local
Sunset 2018-05-21 03:41:21 UTC / 2018-05-20 21:41:21 Local
Advertisement - Login to hide

Runways

ID Width Length Bearing (true) Bearing (mag) Surface Threshold Offset Overrun Length
06 98 ft / 30 m 5,055 ft / 1,541 m 253.01° 242.93° Asphalt 0 ft / 0 m 0 ft / 0 m
24 98 ft / 30 m 5,055 ft / 1,541 m 72.99° 62.91° Asphalt 0 ft / 0 m 0 ft / 0 m

Map

Weather


0- 5 10 15 20 25 30 35+ Temperature / ° C

Clouds and Precipitation
Forecast for 2018-05-21 06:00 UTC. Updated 30 minutes ago

Ground ~20,000 ft ~40,000 ft Winds

METAR

CYSF 210500Z AUTO 08009KT 9SM CLR 09/M01 A2986 RMK SLP125

TAF

TAF CYSF 202338Z 2100/2112 08012KT P6SM SCT120 RMK FCST BASED ON AUTO OBS. NXT FCST BY 210600Z
Warning: Do not use this data for real-world aviation or navigation. No guarantee of current accuracy is given.